Time;durP1;ratioP1;P1;durP2;ratioP2;P2;SDS_P1;SDS_P2;PMS_P1;PMS_P2;Temp;Humidity;BMP_temperature;BMP_pressure;BME280_temperature;BME280_humidity;BME280_pressure;Samples;Min_cycle;Max_cycle;Signal;HPM_P1;HPM_P2
2023/09/03 00:00:08;;;;;;;2.35;2.15;;;;;;;18.39;82.79;102352.63;6244089;28;20308;-66
2023/09/03 00:03:31;;;;;;;2.50;2.28;;;;;;;18.29;82.84;102366.31;6248400;28;20281;-65
2023/09/03 00:06:52;;;;;;;3.05;2.17;;;;;;;18.36;82.64;102383.84;6245668;28;20529;-65
2023/09/03 00:10:13;;;;;;;2.58;2.25;;;;;;;18.11;82.94;102392.69;6244948;28;20235;-66
2023/09/03 00:13:34;;;;;;;4.32;2.33;;;;;;;18.24;82.89;102401.41;6241671;28;20239;-66
2023/09/03 00:16:59;;;;;;;3.13;2.50;;;;;;;18.14;83.32;102403.31;6246712;28;20232;-67
2023/09/03 00:20:20;;;;;;;3.50;2.13;;;;;;;18.01;83.35;102385.53;6222138;28;20228;-66
2023/09/03 00:23:41;;;;;;;9.80;2.08;;;;;;;18.06;83.55;102377.75;6240038;28;20322;-66
2023/09/03 00:27:02;;;;;;;3.13;2.15;;;;;;;18.11;83.44;102369.97;6246291;28;20234;-65
2023/09/03 00:30:22;;;;;;;6.60;2.42;;;;;;;18.06;83.19;102362.25;6245453;28;20239;-67
2023/09/03 00:33:45;;;;;;;3.65;2.08;;;;;;;17.89;83.90;102346.66;6245747;28;20236;-66
2023/09/03 00:37:06;;;;;;;1.98;1.73;;;;;;;17.97;84.28;102345.88;6226711;28;20378;-64
2023/09/03 00:40:27;;;;;;;4.88;2.53;;;;;;;18.02;84.33;102332.69;6227729;28;20228;-65
2023/09/03 00:43:48;;;;;;;4.38;2.42;;;;;;;18.10;84.10;102350.03;6240674;28;20236;-66
2023/09/03 00:47:10;;;;;;;5.63;3.00;;;;;;;18.02;84.07;102351.78;6241884;28;20227;-66
2023/09/03 00:50:33;;;;;;;3.65;2.95;;;;;;;17.80;84.71;102355.69;6245208;28;20358;-65
2023/09/03 00:53:57;;;;;;;6.35;2.90;;;;;;;17.83;85.26;102357.28;6222955;28;20235;-66
2023/09/03 00:57:18;;;;;;;4.07;2.83;;;;;;;17.85;85.84;102358.88;6240585;28;20366;-66
2023/09/03 01:00:39;;;;;;;4.97;3.65;;;;;;;17.76;86.20;102357.00;6243145;28;20231;-66
2023/09/03 01:04:00;;;;;;;3.72;2.75;;;;;;;17.80;86.43;102365.75;6239988;28;20236;-65
2023/09/03 01:07:22;;;;;;;3.47;3.08;;;;;;;17.83;86.52;102371.78;6227900;28;20232;-65
2023/09/03 01:10:51;;;;;;;4.35;3.38;;;;;;;17.89;86.55;102376.66;6233777;28;20616;-66
2023/09/03 01:14:21;;;;;;;6.93;3.50;;;;;;;17.87;86.79;102369.63;6241156;28;20235;-66
2023/09/03 01:17:47;;;;;;;9.00;3.70;;;;;;;17.79;87.32;102380.41;6228564;28;20235;-66
2023/09/03 01:21:35;;;;;;;3.72;3.35;;;;;;;17.86;87.22;102368.75;6232084;28;20235;-65
2023/09/03 01:25:09;;;;;;;4.47;3.63;;;;;;;17.73;87.68;102365.47;6244742;28;20235;-65
2023/09/03 01:28:32;;;;;;;3.60;3.30;;;;;;;17.74;87.68;102352.69;6241245;28;20563;-65
2023/09/03 01:31:55;;;;;;;3.58;3.25;;;;;;;17.79;87.67;102353.13;6248329;28;20994;-66
2023/09/03 01:35:19;;;;;;;4.10;3.08;;;;;;;17.67;88.03;102341.50;6246923;28;20227;-66
2023/09/03 01:38:41;;;;;;;3.92;2.92;;;;;;;17.66;88.06;102352.56;6244017;28;20355;-65
2023/09/03 01:42:04;;;;;;;5.82;3.20;;;;;;;17.77;87.97;102347.81;6233021;28;20243;-65
2023/09/03 01:45:36;;;;;;;8.50;3.78;;;;;;;17.59;87.97;102341.38;6238579;28;22169;-65
2023/09/03 01:49:05;;;;;;;4.15;2.80;;;;;;;17.58;88.32;102344.25;6240642;28;20232;-65
2023/09/03 01:52:35;;;;;;;3.25;2.90;;;;;;;17.63;88.52;102339.25;6232536;28;20614;-65
2023/09/03 01:56:03;;;;;;;6.05;2.88;;;;;;;17.65;88.66;102337.22;6229691;28;20224;-66
2023/09/03 01:59:30;;;;;;;4.72;4.05;;;;;;;17.56;88.54;102342.53;6235664;28;20235;-65
2023/09/03 02:02:55;;;;;;;3.72;2.95;;;;;;;17.60;88.30;102325.88;6230278;28;20239;-66
2023/09/03 02:06:16;;;;;;;3.47;2.97;;;;;;;17.53;88.66;102326.47;6250816;28;21084;-66
2023/09/03 02:09:37;;;;;;;2.65;2.40;;;;;;;17.54;88.60;102319.16;6249139;28;20249;-65
2023/09/03 02:12:58;;;;;;;5.90;3.20;;;;;;;17.47;88.84;102317.97;6248328;28;20232;-66
2023/09/03 02:16:19;;;;;;;3.03;2.83;;;;;;;17.44;88.92;102331.88;6242438;28;20530;-67
2023/09/03 02:19:42;;;;;;;3.58;2.92;;;;;;;17.43;89.19;102324.72;6248029;28;20705;-66
2023/09/03 02:23:02;;;;;;;3.95;3.15;;;;;;;17.38;89.18;102329.72;6244055;28;20346;-66
2023/09/03 02:26:23;;;;;;;4.32;2.78;;;;;;;17.41;89.40;102333.06;6250793;28;20252;-67
2023/09/03 02:29:44;;;;;;;3.28;2.97;;;;;;;17.47;89.18;102340.66;6258358;28;20225;-66
2023/09/03 02:33:05;;;;;;;4.57;2.70;;;;;;;17.52;88.98;102340.25;6249926;28;20611;-66
2023/09/03 02:36:28;;;;;;;3.65;3.35;;;;;;;17.45;89.25;102348.13;6231543;28;20235;-64
2023/09/03 02:39:49;;;;;;;3.10;2.80;;;;;;;17.42;89.25;102358.44;6244753;28;20228;-66
2023/09/03 02:43:09;;;;;;;3.10;2.85;;;;;;;17.45;89.40;102369.94;6229620;28;20232;-65
2023/09/03 02:46:31;;;;;;;2.40;2.20;;;;;;;17.38;89.52;102382.41;6244055;28;20236;-66
2023/09/03 02:49:52;;;;;;;3.70;3.40;;;;;;;17.43;89.25;102390.16;6248190;28;20223;-66
2023/09/03 02:53:14;;;;;;;3.85;2.58;;;;;;;17.46;89.08;102398.03;6227631;28;20232;-65
2023/09/03 02:56:35;;;;;;;3.88;3.33;;;;;;;17.37;89.12;102409.81;6230968;28;20590;-65
2023/09/03 02:59:56;;;;;;;3.65;3.10;;;;;;;17.27;89.15;102408.97;6248635;28;20618;-66
2023/09/03 03:03:17;;;;;;;4.47;2.83;;;;;;;17.28;89.82;102410.66;6240782;28;20245;-66
2023/09/03 03:06:38;;;;;;;4.68;3.65;;;;;;;17.28;89.64;102407.94;6249608;28;20659;-65
2023/09/03 03:10:01;;;;;;;3.65;3.35;;;;;;;17.21;89.46;102407.63;6245668;28;20637;-66
2023/09/03 03:13:22;;;;;;;4.03;3.50;;;;;;;17.19;89.54;102404.19;6236197;28;20267;-66
2023/09/03 03:16:44;;;;;;;4.40;3.58;;;;;;;17.18;89.89;102405.22;6236697;28;20611;-66
2023/09/03 03:20:10;;;;;;;4.07;3.63;;;;;;;17.18;90.09;102401.63;6207158;28;20236;-66
2023/09/03 03:23:31;;;;;;;3.33;3.03;;;;;;;17.14;89.97;102417.41;6230137;28;20239;-66
2023/09/03 03:26:53;;;;;;;4.03;3.13;;;;;;;17.08;89.65;102417.97;6228796;28;20239;-66
2023/09/03 03:30:18;;;;;;;3.47;3.10;;;;;;;17.17;89.71;102417.09;6227315;28;20246;-66
2023/09/03 03:33:39;;;;;;;3.38;3.08;;;;;;;17.21;89.42;102425.88;6227986;28;20231;-66
2023/09/03 03:37:00;;;;;;;2.97;2.67;;;;;;;17.01;89.47;102422.25;6242833;28;20231;-66
2023/09/03 03:40:22;;;;;;;3.88;3.35;;;;;;;17.02;89.32;102415.78;6226886;28;20809;-66
2023/09/03 03:43:46;;;;;;;3.67;3.38;;;;;;;17.04;89.45;102407.50;6237384;28;20227;-66
2023/09/03 03:47:07;;;;;;;2.53;2.30;;;;;;;16.90;89.75;102419.63;6229554;28;20228;-66
2023/09/03 03:50:29;;;;;;;4.47;2.95;;;;;;;16.94;89.80;102412.91;6230909;28;20233;-65
2023/09/03 03:53:51;;;;;;;6.18;3.30;;;;;;;16.91;90.01;102418.66;6225347;28;20609;-66
2023/09/03 03:57:12;;;;;;;4.75;2.97;;;;;;;16.88;89.97;102407.13;6225246;28;20241;-65
2023/09/03 04:00:34;;;;;;;3.67;3.38;;;;;;;16.79;90.38;102411.59;6226725;28;20235;-65
2023/09/03 04:03:57;;;;;;;4.53;2.88;;;;;;;16.72;90.63;102405.84;6223275;28;20232;-66
2023/09/03 04:07:18;;;;;;;4.30;3.90;;;;;;;16.56;90.93;102410.91;6230023;28;20235;-66
2023/09/03 04:10:38;;;;;;;4.25;3.85;;;;;;;16.70;91.03;102413.28;6229116;28;20236;-65
2023/09/03 04:13:59;;;;;;;8.23;3.85;;;;;;;16.76;91.17;102420.91;6231878;28;20255;-66
2023/09/03 04:17:22;;;;;;;3.35;3.05;;;;;;;16.82;91.29;102440.38;6238954;28;20381;-66
2023/09/03 04:20:43;;;;;;;6.20;4.20;;;;;;;16.93;91.45;102451.19;6217963;28;20267;-66
2023/09/03 04:24:06;;;;;;;3.87;3.23;;;;;;;16.87;91.53;102447.16;6241746;28;20219;-64
2023/09/03 04:27:27;;;;;;;4.47;3.80;;;;;;;16.76;91.52;102453.59;6226152;28;20243;-66
2023/09/03 04:30:54;;;;;;;6.37;4.00;;;;;;;16.73;91.89;102456.56;6227067;28;20231;-65
2023/09/03 04:34:17;;;;;;;4.78;3.67;;;;;;;16.74;91.98;102457.44;6226687;28;20236;-65
2023/09/03 04:37:38;;;;;;;4.60;4.20;;;;;;;16.72;92.25;102463.03;6228788;28;20347;-65
2023/09/03 04:41:04;;;;;;;4.13;3.60;;;;;;;16.74;92.52;102471.06;6223188;28;21096;-66
2023/09/03 04:44:24;;;;;;;3.77;3.00;;;;;;;16.77;92.44;102484.41;6220179;28;20231;-65
2023/09/03 04:47:46;;;;;;;5.37;4.43;;;;;;;16.80;92.87;102484.13;6227913;28;20228;-65
2023/09/03 04:51:09;;;;;;;6.10;3.87;;;;;;;16.80;92.81;102492.28;6230769;28;20228;-65
2023/09/03 04:54:31;;;;;;;4.23;3.23;;;;;;;16.84;92.91;102485.56;6224631;28;20231;-66
2023/09/03 04:57:52;;;;;;;4.33;4.03;;;;;;;16.71;93.12;102501.28;6243277;28;20256;-65
2023/09/03 05:01:15;;;;;;;4.73;4.23;;;;;;;16.79;93.26;102504.22;6220441;28;20252;-66
2023/09/03 05:04:38;;;;;;;4.53;3.30;;;;;;;16.81;93.14;102499.47;6220774;28;20322;-65
2023/09/03 05:08:00;;;;;;;4.00;3.60;;;;;;;16.81;92.97;102502.22;6226934;28;21128;-66
2023/09/03 05:11:21;;;;;;;4.83;3.07;;;;;;;16.72;93.41;102506.59;6240869;28;20231;-64
2023/09/03 05:14:43;;;;;;;4.57;4.17;;;;;;;16.72;93.22;102497.56;6230559;28;20318;-65
2023/09/03 05:18:04;;;;;;;4.03;3.67;;;;;;;16.89;93.22;102506.97;6221888;28;20314;-65
2023/09/03 05:21:27;;;;;;;6.65;3.42;;;;;;;16.68;92.89;102507.88;6242179;28;20236;-65
2023/09/03 05:24:49;;;;;;;3.65;3.28;;;;;;;16.84;92.88;102512.81;6240910;28;20619;-65
2023/09/03 05:28:10;;;;;;;9.02;5.47;;;;;;;16.94;92.86;102521.88;6219491;28;20228;-64
2023/09/03 05:31:31;;;;;;;5.30;3.97;;;;;;;17.08;92.40;102523.38;6229460;28;20240;-65
2023/09/03 05:34:53;;;;;;;3.97;3.55;;;;;;;17.02;91.97;102513.88;6232228;28;20227;-66
2023/09/03 05:38:14;;;;;;;3.37;2.70;;;;;;;16.83;91.65;102515.69;6225486;28;20227;-65
2023/09/03 05:41:36;;;;;;;6.65;2.20;;;;;;;16.88;91.94;102510.66;6241643;28;20292;-65
2023/09/03 05:44:58;;;;;;;2.90;2.67;;;;;;;17.02;91.64;102504.88;6224976;28;20579;-66
2023/09/03 05:48:20;;;;;;;2.97;2.47;;;;;;;16.99;91.06;102495.09;6235593;28;20231;-65
2023/09/03 05:51:41;;;;;;;3.90;2.50;;;;;;;16.93;90.87;102492.06;6241363;28;20592;-65
2023/09/03 05:55:03;;;;;;;2.60;2.37;;;;;;;16.83;91.26;102489.31;6220698;28;20235;-66
2023/09/03 05:58:25;;;;;;;3.53;2.17;;;;;;;16.98;90.80;102496.09;6236396;28;20326;-66
2023/09/03 06:01:47;;;;;;;2.60;2.40;;;;;;;17.09;90.12;102493.25;6222672;28;20224;-66
2023/09/03 06:05:10;;;;;;;3.63;3.20;;;;;;;17.34;89.30;102500.94;6239377;28;20238;-65
2023/09/03 06:08:33;;;;;;;3.03;2.63;;;;;;;17.32;88.92;102507.53;6230550;28;20608;-65
2023/09/03 06:11:54;;;;;;;3.65;2.28;;;;;;;17.25;88.88;102520.84;6226152;28;20231;-66
2023/09/03 06:15:16;;;;;;;2.25;2.05;;;;;;;17.17;88.53;102530.72;6232613;28;20232;-65
2023/09/03 06:18:37;;;;;;;3.42;2.70;;;;;;;17.27;88.56;102526.19;6237021;28;20235;-66
2023/09/03 06:21:58;;;;;;;2.88;2.58;;;;;;;17.36;88.11;102528.91;6235651;28;20260;-66
2023/09/03 06:25:19;;;;;;;2.10;1.90;;;;;;;17.32;87.67;102523.88;6236362;28;20236;-65
2023/09/03 06:28:40;;;;;;;4.25;2.25;;;;;;;17.64;86.84;102530.03;6231982;28;20485;-66
2023/09/03 06:32:02;;;;;;;1.85;1.67;;;;;;;17.85;85.94;102525.31;6236322;28;20555;-65
2023/09/03 06:35:23;;;;;;;2.13;1.90;;;;;;;18.05;84.84;102534.34;6236592;28;20411;-65
2023/09/03 06:38:44;;;;;;;2.25;1.85;;;;;;;17.93;84.27;102520.00;6242442;28;20323;-64
2023/09/03 06:42:05;;;;;;;1.80;1.70;;;;;;;18.24;83.27;102515.22;6242143;28;20839;-65
2023/09/03 06:45:27;;;;;;;3.22;2.05;;;;;;;18.24;82.62;102527.00;6236336;28;20681;-65
2023/09/03 06:48:49;;;;;;;2.13;1.92;;;;;;;18.34;82.85;102536.03;6246470;28;20232;-65
2023/09/03 06:52:09;;;;;;;2.22;2.10;;;;;;;18.09;83.13;102536.66;6237708;28;20520;-64
2023/09/03 06:55:32;;;;;;;2.80;2.47;;;;;;;17.86;83.70;102553.44;6227431;28;20235;-65
2023/09/03 06:58:52;;;;;;;6.18;2.63;;;;;;;18.06;82.94;102549.72;6233905;28;20235;-65
2023/09/03 07:02:13;;;;;;;3.03;2.25;;;;;;;17.91;83.28;102565.66;6234770;28;20231;-65
2023/09/03 07:05:36;;;;;;;5.05;2.60;;;;;;;17.55;84.36;102569.91;6250672;28;20233;-66
2023/09/03 07:08:56;;;;;;;4.40;2.58;;;;;;;18.06;83.86;102566.97;6249534;28;20244;-65
2023/09/03 07:12:20;;;;;;;4.60;2.60;;;;;;;18.27;83.01;102567.66;6250203;28;20563;-66
2023/09/03 07:15:41;;;;;;;2.47;2.30;;;;;;;18.32;82.67;102575.44;6246686;28;20232;-67
2023/09/03 07:19:01;;;;;;;1.48;1.20;;;;;;;18.74;81.38;102573.25;6252151;28;20233;-65
2023/09/03 07:22:24;;;;;;;3.20;2.00;;;;;;;18.65;80.94;102577.72;6256308;28;20727;-66
2023/09/03 07:25:45;;;;;;;2.25;2.05;;;;;;;18.94;79.76;102570.28;6244617;28;20749;-66
2023/09/03 07:29:05;;;;;;;1.25;1.15;;;;;;;19.24;79.42;102574.66;6247296;28;20326;-66
2023/09/03 07:32:26;;;;;;;1.83;1.55;;;;;;;19.51;78.08;102566.47;6254721;28;20269;-66
2023/09/03 07:35:47;;;;;;;1.70;1.60;;;;;;;19.46;76.75;102574.25;6256352;28;20348;-65
2023/09/03 07:39:10;;;;;;;1.70;0.80;;;;;;;19.56;76.25;102566.88;6248860;28;20236;-65
2023/09/03 07:42:30;;;;;;;1.83;0.95;;;;;;;19.59;75.86;102565.69;6244342;28;20232;-64
2023/09/03 07:45:51;;;;;;;3.40;1.95;;;;;;;19.45;76.04;102567.09;6239863;28;20235;-64
2023/09/03 07:49:12;;;;;;;10.82;9.52;;;;;;;20.14;75.62;102569.19;6245344;28;20494;-66
2023/09/03 07:52:33;;;;;;;6.97;3.75;;;;;;;20.65;74.75;102578.38;6245233;28;20250;-66
2023/09/03 07:55:55;;;;;;;61.17;22.17;;;;;;;21.06;72.58;102592.41;6246955;28;20233;-67
2023/09/03 07:59:16;;;;;;;18.65;9.05;;;;;;;21.60;73.66;102589.25;6238358;28;20236;-64
2023/09/03 08:02:37;;;;;;;2.33;1.85;;;;;;;21.21;70.58;102585.31;6232208;28;20228;-65
2023/09/03 08:05:59;;;;;;;16.90;13.32;;;;;;;21.52;70.92;102599.31;6231731;28;20243;-66
2023/09/03 08:09:23;;;;;;;6.25;5.72;;;;;;;21.84;69.85;102603.06;6232249;28;20239;-68
2023/09/03 08:12:45;;;;;;;6.68;6.18;;;;;;;21.87;67.58;102605.50;6235786;28;20236;-64
2023/09/03 08:16:06;;;;;;;6.03;1.08;;;;;;;21.52;67.19;102608.44;6223687;28;20272;-65
2023/09/03 08:19:27;;;;;;;1.00;0.77;;;;;;;21.08;68.09;102609.56;6229247;28;20239;-66
2023/09/03 08:22:48;;;;;;;1.40;1.27;;;;;;;20.86;68.80;102615.56;6231290;28;20319;-64
2023/09/03 08:26:10;;;;;;;1.50;1.40;;;;;;;20.81;69.25;102606.94;6221838;28;20235;-64
2023/09/03 08:29:32;;;;;;;1.50;1.25;;;;;;;20.85;69.78;102609.22;6226180;28;20242;-65
2023/09/03 08:32:53;;;;;;;2.00;1.02;;;;;;;21.38;68.35;102609.91;6221285;28;20243;-65
2023/09/03 08:36:14;;;;;;;3.40;1.17;;;;;;;21.29;67.98;102605.41;6234397;28;20242;-65
2023/09/03 08:39:35;;;;;;;1.52;1.27;;;;;;;21.24;68.10;102615.13;6224780;28;20232;-65
2023/09/03 08:42:56;;;;;;;1.55;1.05;;;;;;;21.88;67.10;102612.69;6232212;28;20232;-64
2023/09/03 08:46:20;;;;;;;0.93;0.70;;;;;;;21.70;65.88;102611.06;6228395;28;20240;-65
2023/09/03 08:49:41;;;;;;;1.40;1.08;;;;;;;21.77;65.99;102615.75;6232267;28;20243;-65
2023/09/03 08:53:02;;;;;;;1.88;1.20;;;;;;;21.80;66.03;102615.38;6230490;28;20342;-65
2023/09/03 08:56:23;;;;;;;0.68;0.68;;;;;;;22.09;64.91;102626.81;6245671;28;20867;-65
2023/09/03 08:59:44;;;;;;;3.90;1.00;;;;;;;21.55;65.66;102616.31;6250638;28;20235;-65
2023/09/03 09:03:11;;;;;;;3.10;1.52;;;;;;;21.86;65.12;102611.16;6248115;28;20231;-65
2023/09/03 09:06:33;;;;;;;2.05;1.15;;;;;;;22.11;63.92;102610.19;6249557;28;21397;-66
2023/09/03 09:09:58;;;;;;;0.80;0.63;;;;;;;21.60;64.88;102618.56;6240684;28;20244;-64
2023/09/03 09:13:22;;;;;;;2.53;0.98;;;;;;;22.13;65.18;102622.72;6233588;28;20231;-65
2023/09/03 09:16:43;;;;;;;1.60;1.40;;;;;;;22.09;64.91;102626.00;6220486;28;20622;-65
2023/09/03 09:20:06;;;;;;;3.47;1.90;;;;;;;22.12;64.22;102626.50;6240204;28;20231;-65
2023/09/03 09:23:28;;;;;;;1.30;1.17;;;;;;;22.46;63.68;102625.50;6238422;28;20421;-66
2023/09/03 09:26:48;;;;;;;1.95;1.85;;;;;;;22.28;63.11;102623.78;6232507;28;20236;-65
2023/09/03 09:30:11;;;;;;;2.60;2.20;;;;;;;22.25;63.90;102624.13;6234861;28;20234;-64
2023/09/03 09:33:32;;;;;;;2.47;1.95;;;;;;;22.25;62.68;102628.75;6236406;28;20232;-65
2023/09/03 09:36:54;;;;;;;2.92;1.30;;;;;;;22.81;61.42;102628.81;6220584;28;20228;-65
2023/09/03 09:40:26;;;;;;;2.00;1.52;;;;;;;22.39;61.24;102624.47;6240880;28;20236;-66
2023/09/03 09:43:47;;;;;;;3.40;1.25;;;;;;;22.25;60.43;102632.38;6248663;28;20231;-66
2023/09/03 09:47:17;;;;;;;1.77;1.10;;;;;;;22.53;59.87;102637.56;6229946;28;20237;-65
2023/09/03 09:50:39;;;;;;;1.63;1.30;;;;;;;22.70;59.93;102631.03;6234640;28;20239;-65
2023/09/03 09:54:02;;;;;;;3.15;1.25;;;;;;;23.28;59.93;102644.56;6243294;28;20232;-65
2023/09/03 09:57:24;;;;;;;2.88;1.17;;;;;;;22.62;59.26;102640.16;6244841;28;20843;-66
2023/09/03 10:00:45;;;;;;;1.67;1.30;;;;;;;23.36;59.58;102637.16;6242586;28;21439;-66
2023/09/03 10:04:06;;;;;;;2.22;1.23;;;;;;;22.46;59.58;102644.75;6232659;28;20234;-66
2023/09/03 10:07:27;;;;;;;3.60;1.23;;;;;;;22.65;59.50;102648.06;6235172;28;20327;-66
2023/09/03 10:10:50;;;;;;;2.30;1.98;;;;;;;23.25;59.83;102654.03;6240286;28;20235;-67
2023/09/03 10:14:11;;;;;;;2.17;1.65;;;;;;;23.32;59.04;102649.53;6247057;28;20240;-66
2023/09/03 10:17:34;;;;;;;1.35;1.13;;;;;;;22.92;58.92;102666.97;6247434;28;20265;-65
2023/09/03 10:20:58;;;;;;;5.85;1.35;;;;;;;22.71;58.64;102676.78;6243687;28;20231;-66
2023/09/03 10:24:21;;;;;;;1.20;1.10;;;;;;;22.64;59.30;102675.72;6242505;28;20227;-67
2023/09/03 10:27:48;;;;;;;1.73;0.90;;;;;;;23.35;59.03;102667.59;6220269;28;20239;-67
2023/09/03 10:31:11;;;;;;;3.97;1.90;;;;;;;23.52;57.45;102667.41;6242766;28;20231;-66
2023/09/03 10:34:33;;;;;;;1.52;1.13;;;;;;;23.58;56.31;102674.09;6236870;28;20231;-66
2023/09/03 10:37:54;;;;;;;1.90;1.30;;;;;;;23.83;56.73;102673.81;6236651;28;20236;-67
2023/09/03 10:41:19;;;;;;;1.25;1.00;;;;;;;23.47;57.05;102669.81;6234931;28;20271;-66
2023/09/03 10:44:44;;;;;;;2.00;1.45;;;;;;;22.91;57.66;102675.38;6240841;28;20235;-65
2023/09/03 10:48:06;;;;;;;2.65;1.65;;;;;;;23.90;55.97;102673.09;6235244;28;20240;-66
2023/09/03 10:51:32;;;;;;;1.05;0.98;;;;;;;24.20;55.93;102670.38;6237767;28;20507;-66
2023/09/03 10:55:15;;;;;;;1.98;1.45;;;;;;;23.27;57.17;102673.09;6231079;28;20657;-67
2023/09/03 10:58:51;;;;;;;1.20;1.10;;;;;;;24.10;54.90;102675.25;6227528;28;20231;-66
2023/09/03 11:02:25;;;;;;;1.30;0.80;;;;;;;24.69;53.38;102673.66;6247964;28;20253;-63
2023/09/03 11:06:15;;;;;;;2.78;1.38;;;;;;;25.46;52.36;102674.34;6250395;28;20791;-64
2023/09/03 11:09:36;;;;;;;2.28;1.55;;;;;;;24.19;53.14;102673.31;6228479;28;20318;-64
2023/09/03 11:12:57;;;;;;;3.90;1.30;;;;;;;24.46;54.48;102675.56;6238967;28;20232;-63
2023/09/03 11:16:17;;;;;;;2.00;1.17;;;;;;;24.05;54.53;102669.44;6235710;28;20628;-63
2023/09/03 11:19:43;;;;;;;1.48;1.00;;;;;;;23.36;57.03;102680.34;6236195;28;20246;-65
2023/09/03 11:23:04;;;;;;;3.47;1.05;;;;;;;22.63;58.66;102674.88;6238414;28;20314;-64
2023/09/03 11:26:25;;;;;;;1.30;1.20;;;;;;;22.47;59.45;102683.06;6238579;28;20497;-65
2023/09/03 11:29:46;;;;;;;1.73;1.33;;;;;;;23.31;57.46;102680.84;6235357;28;20232;-65
2023/09/03 11:33:08;;;;;;;2.50;1.52;;;;;;;26.61;51.19;102677.09;6213489;28;20616;-65
2023/09/03 11:36:30;;;;;;;1.10;1.00;;;;;;;27.27;47.75;102673.00;6248962;28;20232;-63
2023/09/03 11:39:51;;;;;;;2.33;1.30;;;;;;;28.16;46.77;102672.09;6235179;28;20227;-64
2023/09/03 11:43:12;;;;;;;1.48;1.10;;;;;;;28.79;44.50;102687.44;6220929;28;20230;-64
2023/09/03 11:46:33;;;;;;;1.38;1.20;;;;;;;28.37;44.29;102686.66;6252524;28;20231;-63
2023/09/03 11:49:54;;;;;;;2.78;1.70;;;;;;;27.87;46.17;102694.53;6227711;28;20242;-63
2023/09/03 11:53:16;;;;;;;2.75;1.33;;;;;;;28.78;44.71;102694.91;6230495;28;20231;-63
2023/09/03 11:56:37;;;;;;;1.85;1.08;;;;;;;27.87;44.78;102691.78;6252799;28;20243;-63
2023/09/03 11:59:58;;;;;;;0.82;0.82;;;;;;;28.57;44.36;102691.44;6241886;28;20648;-64
2023/09/03 12:03:19;;;;;;;1.65;1.17;;;;;;;28.42;43.78;102686.88;6230212;28;20221;-63
2023/09/03 12:06:41;;;;;;;1.38;1.13;;;;;;;28.76;43.23;102697.03;6252055;28;20259;-64
2023/09/03 12:10:03;;;;;;;1.63;1.23;;;;;;;28.04;44.62;102680.13;6249574;28;20231;-63
2023/09/03 12:13:32;;;;;;;1.58;1.23;;;;;;;26.36;47.77;102701.53;6230407;28;20233;-64
2023/09/03 12:16:53;;;;;;;1.17;1.08;;;;;;;25.62;50.09;102696.25;6234186;28;20235;-63
2023/09/03 12:20:31;;;;;;;1.23;0.85;;;;;;;25.10;50.99;102696.25;6189058;28;20992;-62
2023/09/03 12:23:52;;;;;;;1.33;1.10;;;;;;;25.41;48.99;102694.25;6224064;28;20768;-64
2023/09/03 12:27:15;;;;;;;1.92;1.23;;;;;;;24.79;50.13;102698.25;6228219;28;20235;-63
2023/09/03 12:30:57;;;;;;;1.60;1.13;;;;;;;24.92;49.32;102707.66;6239496;28;20239;-63
2023/09/03 12:34:32;;;;;;;1.15;1.00;;;;;;;25.50;49.47;102711.59;6226427;28;20255;-63
2023/09/03 12:38:00;;;;;;;1.10;0.75;;;;;;;26.92;47.23;102703.44;6226355;28;20224;-63
2023/09/03 12:41:21;;;;;;;1.23;1.00;;;;;;;26.96;46.06;102697.47;6228953;28;20231;-64
2023/09/03 12:44:43;;;;;;;1.95;0.95;;;;;;;27.20;46.03;102700.69;6239553;28;20226;-64
2023/09/03 12:48:04;;;;;;;1.20;1.08;;;;;;;27.51;45.45;102706.72;6221945;28;20243;-63
2023/09/03 12:51:25;;;;;;;2.08;0.93;;;;;;;26.15;46.52;102715.31;6226773;28;20314;-63
2023/09/03 12:54:46;;;;;;;2.25;1.50;;;;;;;26.73;47.00;102709.63;6239641;28;20230;-63
2023/09/03 12:58:08;;;;;;;1.58;0.85;;;;;;;27.44;45.98;102705.78;6224717;28;20849;-63
2023/09/03 13:01:30;;;;;;;1.35;1.00;;;;;;;26.64;46.82;102705.22;6246313;28;20239;-64
2023/09/03 13:04:51;;;;;;;0.90;0.80;;;;;;;27.46;46.08;102706.44;6230724;28;20232;-64
2023/09/03 13:08:12;;;;;;;0.95;0.90;;;;;;;26.22;45.70;102707.97;6228240;28;20247;-63
2023/09/03 13:13:40;;;;;;;3.35;0.90;;;;;;;25.50;49.08;102692.25;6227529;28;21265;-63
2023/09/03 13:17:01;;;;;;;2.00;1.30;;;;;;;25.13;50.14;102691.25;6222629;28;20225;-63
2023/09/03 13:20:22;;;;;;;1.90;0.93;;;;;;;24.55;52.08;102700.13;6210641;28;20239;-62
2023/09/03 13:23:43;;;;;;;0.90;0.85;;;;;;;25.08;51.87;102696.44;6195284;28;20561;-64
2023/09/03 13:27:04;;;;;;;1.42;0.70;;;;;;;25.25;51.07;102688.88;6201287;28;20627;-63
2023/09/03 13:30:26;;;;;;;1.65;0.90;;;;;;;25.28;50.71;102686.56;6206545;28;20236;-62
2023/09/03 13:33:50;;;;;;;1.23;1.13;;;;;;;25.76;50.44;102687.97;6209862;28;20227;-63
2023/09/03 13:37:11;;;;;;;1.20;1.02;;;;;;;26.43;49.49;102694.16;6224838;28;20390;-64
2023/09/03 13:40:32;;;;;;;1.70;0.98;;;;;;;27.38;46.24;102694.66;6210206;28;20323;-63
2023/09/03 13:43:52;;;;;;;1.75;0.80;;;;;;;27.44;47.33;102700.25;6181715;28;20362;-63
2023/09/03 13:47:15;;;;;;;1.60;1.15;;;;;;;25.91;49.30;102718.38;6215887;28;20244;-63
2023/09/03 13:50:36;;;;;;;1.63;1.20;;;;;;;24.61;51.45;102713.19;6233681;28;20229;-63
2023/09/03 13:53:56;;;;;;;0.80;0.80;;;;;;;25.51;50.24;102708.66;6208218;28;20723;-63
2023/09/03 13:57:17;;;;;;;3.17;1.10;;;;;;;25.53;50.84;102712.09;6221955;28;20240;-63
2023/09/03 14:00:38;;;;;;;2.08;1.00;;;;;;;25.55;49.80;102711.88;6200765;28;20363;-63
2023/09/03 14:04:03;;;;;;;1.27;1.17;;;;;;;25.01;50.41;102711.19;6201803;28;20232;-63
2023/09/03 14:07:26;;;;;;;2.35;1.00;;;;;;;24.97;51.28;102710.69;6201432;28;20315;-63
2023/09/03 14:10:57;;;;;;;3.15;1.73;;;;;;;23.79;53.92;102711.03;6197369;28;20335;-64
2023/09/03 14:14:18;;;;;;;1.40;1.25;;;;;;;24.00;54.50;102713.19;6180995;28;20233;-64
2023/09/03 14:17:38;;;;;;;2.22;1.20;;;;;;;23.88;54.94;102698.09;6197557;28;20740;-63
2023/09/03 14:21:01;;;;;;;2.40;1.23;;;;;;;24.08;54.71;102704.03;6181426;28;20716;-67
2023/09/03 14:24:21;;;;;;;1.05;0.95;;;;;;;24.14;54.77;102704.19;6160132;28;20240;-68
2023/09/03 14:27:42;;;;;;;2.00;1.80;;;;;;;24.53;53.83;102695.84;6179071;28;20260;-67
2023/09/03 14:31:04;;;;;;;1.08;1.00;;;;;;;24.15;54.22;102688.50;6173747;28;20229;-67
2023/09/03 14:34:26;;;;;;;2.58;1.00;;;;;;;24.13;55.58;102693.34;6186702;28;20225;-67
2023/09/03 14:37:50;;;;;;;1.40;1.30;;;;;;;24.13;56.38;102698.84;6180509;28;20606;-68
2023/09/03 14:41:10;;;;;;;1.10;0.98;;;;;;;23.74;56.80;102696.03;6184535;28;20329;-66
2023/09/03 14:44:31;;;;;;;1.23;1.00;;;;;;;23.93;56.81;102695.63;6179124;28;20727;-67
2023/09/03 14:47:52;;;;;;;1.10;1.00;;;;;;;23.74;57.49;102688.66;6193339;28;20233;-68
2023/09/03 14:51:14;;;;;;;2.03;1.30;;;;;;;23.77;57.42;102698.47;6190957;28;20238;-67
2023/09/03 14:54:36;;;;;;;4.03;1.38;;;;;;;23.35;57.86;102708.91;6179374;28;20324;-67
2023/09/03 14:57:57;;;;;;;1.92;1.30;;;;;;;23.42;58.89;102693.41;6193700;28;20614;-66
2023/09/03 15:01:22;;;;;;;1.83;1.42;;;;;;;23.01;58.41;102684.31;6196705;28;20229;-67
2023/09/03 15:04:43;;;;;;;1.15;1.00;;;;;;;23.20;58.59;102692.22;6181498;28;20241;-67
2023/09/03 15:08:07;;;;;;;2.45;1.23;;;;;;;23.20;57.79;102685.88;6191147;28;21938;-66
2023/09/03 15:11:29;;;;;;;2.22;1.52;;;;;;;23.33;58.57;102687.06;6188571;28;20232;-66
2023/09/03 15:14:50;;;;;;;4.55;3.25;;;;;;;23.43;59.16;102687.72;6199359;28;20596;-68
2023/09/03 15:18:11;;;;;;;3.17;2.45;;;;;;;23.44;58.16;102694.09;6180754;28;20507;-68
2023/09/03 15:21:32;;;;;;;3.72;2.78;;;;;;;23.97;57.00;102687.88;6212410;28;20570;-67
2023/09/03 15:24:53;;;;;;;2.03;1.85;;;;;;;24.45;55.65;102685.72;6186990;28;20605;-67
2023/09/03 15:28:15;;;;;;;3.45;1.98;;;;;;;24.33;55.91;102689.94;6190097;28;20228;-68
2023/09/03 15:31:35;;;;;;;16.77;12.80;;;;;;;24.50;56.08;102691.56;6190808;28;20252;-68
2023/09/03 15:34:57;;;;;;;1.63;1.10;;;;;;;24.12;56.55;102698.00;6162577;28;20241;-67
2023/09/03 15:38:18;;;;;;;4.35;2.67;;;;;;;23.94;56.82;102697.38;6194463;28;20954;-69
2023/09/03 15:41:38;;;;;;;4.95;4.00;;;;;;;24.01;56.98;102692.84;6210739;28;20282;-67